Time;durP1;ratioP1;P1;durP2;ratioP2;P2;SDS_P1;SDS_P2;PMS_P1;PMS_P2;Temp;Humidity;BMP_temperature;BMP_pressure;BME280_temperature;BME280_humidity;BME280_pressure;Samples;Min_cycle;Max_cycle;Signal;HPM_P1;HPM_P2
2021/01/25 00:01:31;;;;;;;1.70;1.58;;;4.90;1.00;;;;;;5035182;28;20104;-82
2021/01/25 00:03:56;;;;;;;3.38;1.60;;;4.70;1.00;;;;;;5034281;28;20029;-82
2021/01/25 00:06:22;;;;;;;1.90;1.50;;;5.10;1.00;;;;;;5035008;28;20045;-82
2021/01/25 00:08:48;;;;;;;3.33;1.60;;;4.90;1.00;;;;;;5034653;28;20029;-82
2021/01/25 00:11:13;;;;;;;2.05;1.65;;;5.20;1.00;;;;;;5035007;28;20030;-82
2021/01/25 00:13:39;;;;;;;2.45;1.65;;;4.80;1.00;;;;;;5035249;28;20104;-82
2021/01/25 00:16:05;;;;;;;2.45;1.40;;;5.20;1.00;;;;;;5034884;28;20033;-82
2021/01/25 00:18:30;;;;;;;1.60;1.30;;;4.80;1.00;;;;;;5035168;28;20514;-82
2021/01/25 00:20:56;;;;;;;2.10;1.50;;;5.40;1.00;;;;;;5035123;28;20021;-82
2021/01/25 00:23:22;;;;;;;1.45;1.27;;;5.10;1.00;;;;;;5034092;28;20490;-82
2021/01/25 00:25:47;;;;;;;1.60;1.50;;;5.00;1.00;;;;;;5034158;28;20021;-82
2021/01/25 00:28:13;;;;;;;2.67;1.13;;;4.90;1.00;;;;;;5034859;28;20034;-82
2021/01/25 00:30:38;;;;;;;2.10;1.20;;;4.90;1.00;;;;;;5034784;28;20017;-82
2021/01/25 00:33:04;;;;;;;1.30;1.00;;;5.20;1.00;;;;;;5034426;28;20502;-82
2021/01/25 00:35:30;;;;;;;1.60;1.15;;;4.90;1.00;;;;;;5034845;28;20491;-82
2021/01/25 00:37:55;;;;;;;1.60;1.05;;;4.90;1.00;;;;;;5034374;28;20471;-82
2021/01/25 00:40:21;;;;;;;2.35;1.23;;;4.90;1.00;;;;;;5034455;28;20032;-82
2021/01/25 00:42:47;;;;;;;1.33;1.20;;;5.10;1.00;;;;;;5034552;28;20035;-82
2021/01/25 00:45:13;;;;;;;0.98;0.98;;;4.90;1.00;;;;;;5034546;28;20545;-82
2021/01/25 00:47:38;;;;;;;1.25;1.10;;;4.90;1.00;;;;;;5035042;28;20026;-82
2021/01/25 00:50:05;;;;;;;1.38;1.13;;;4.80;1.00;;;;;;5034195;28;20068;-82
2021/01/25 00:52:30;;;;;;;1.30;1.20;;;4.80;1.00;;;;;;5033727;28;20091;-82
2021/01/25 00:54:56;;;;;;;1.33;1.08;;;4.80;1.00;;;;;;5034297;28;20487;-82
2021/01/25 00:57:26;;;;;;;1.33;1.23;;;5.20;1.00;;;;;;5034747;28;20029;-82
2021/01/25 00:59:52;;;;;;;2.35;1.70;;;5.30;1.00;;;;;;5034638;28;20064;-82
2021/01/25 01:02:18;;;;;;;1.50;1.40;;;4.80;1.00;;;;;;5034688;28;20487;-82
2021/01/25 01:04:43;;;;;;;1.55;1.30;;;5.20;1.00;;;;;;5034830;28;20105;-82
2021/01/25 01:07:09;;;;;;;2.13;1.40;;;4.80;1.00;;;;;;5033196;28;20450;-82
2021/01/25 01:09:34;;;;;;;2.00;1.40;;;4.80;1.00;;;;;;5031606;28;20029;-82
2021/01/25 01:12:00;;;;;;;2.22;1.52;;;5.10;1.00;;;;;;5023111;28;20052;-82
2021/01/25 01:14:26;;;;;;;1.55;1.40;;;4.80;1.00;;;;;;5033284;28;20018;-82
2021/01/25 01:16:51;;;;;;;1.92;1.40;;;5.10;1.00;;;;;;5034097;28;20483;-82
2021/01/25 01:19:17;;;;;;;1.33;1.20;;;5.10;1.00;;;;;;5033544;28;20030;-82
2021/01/25 01:21:43;;;;;;;1.67;1.25;;;4.80;1.00;;;;;;5033503;28;20033;-82
2021/01/25 01:24:09;;;;;;;2.08;1.40;;;5.00;1.00;;;;;;5034104;28;20044;-82
2021/01/25 01:26:35;;;;;;;2.47;1.33;;;4.80;1.00;;;;;;5034202;28;20027;-82
2021/01/25 01:29:01;;;;;;;2.20;1.70;;;4.90;1.00;;;;;;5033545;28;20025;-82
2021/01/25 01:31:26;;;;;;;2.08;1.40;;;4.80;1.00;;;;;;5033505;28;20515;-82
2021/01/25 01:33:52;;;;;;;2.10;1.40;;;4.80;1.00;;;;;;5033823;28;20029;-82
2021/01/25 01:36:18;;;;;;;2.25;1.50;;;5.30;1.00;;;;;;5033178;28;20017;-82
2021/01/25 01:38:43;;;;;;;2.05;1.30;;;4.80;1.00;;;;;;5032018;28;20128;-82
2021/01/25 01:41:09;;;;;;;1.50;1.38;;;5.20;1.00;;;;;;5033626;28;20022;-82
2021/01/25 01:43:34;;;;;;;1.40;1.27;;;4.90;1.00;;;;;;5033244;28;20021;-82
2021/01/25 01:46:00;;;;;;;2.75;1.63;;;5.10;1.00;;;;;;5032920;28;20405;-82
2021/01/25 01:48:26;;;;;;;1.65;1.48;;;4.70;1.00;;;;;;5033540;28;20029;-82
2021/01/25 01:50:52;;;;;;;2.00;1.30;;;4.70;1.00;;;;;;5032957;28;20112;-82
2021/01/25 01:53:19;;;;;;;1.33;1.23;;;4.60;1.00;;;;;;5033428;28;20025;-82
2021/01/25 01:55:45;;;;;;;1.17;1.00;;;4.60;1.00;;;;;;5032672;28;20018;-82
2021/01/25 01:58:10;;;;;;;1.42;1.20;;;4.50;1.00;;;;;;5033516;28;20555;-81
2021/01/25 02:00:36;;;;;;;1.80;1.33;;;4.80;1.00;;;;;;5033027;28;20033;-82
2021/01/25 02:03:02;;;;;;;1.70;1.20;;;4.90;1.00;;;;;;5032912;28;20133;-82
2021/01/25 02:05:28;;;;;;;1.75;1.30;;;4.60;1.00;;;;;;5032807;28;20455;-81
2021/01/25 02:07:57;;;;;;;2.17;1.10;;;5.00;1.00;;;;;;5032428;28;20073;-82
2021/01/25 02:10:24;;;;;;;1.88;1.00;;;4.90;1.00;;;;;;5032008;28;20037;-82
2021/01/25 02:12:58;;;;;;;1.88;1.30;;;4.60;1.00;;;;;;5032915;28;20041;-82
2021/01/25 02:15:25;;;;;;;1.83;1.45;;;4.60;1.00;;;;;;5032690;28;20083;-82
2021/01/25 02:17:51;;;;;;;1.52;1.20;;;4.70;1.00;;;;;;5032119;28;20025;-82
2021/01/25 02:20:32;;;;;;;1.35;1.17;;;4.80;1.00;;;;;;5032953;28;20048;-82
2021/01/25 02:23:07;;;;;;;1.65;1.30;;;4.90;1.00;;;;;;5032997;28;20026;-82
2021/01/25 02:25:36;;;;;;;2.17;1.13;;;5.00;1.00;;;;;;5032220;28;20502;-82
2021/01/25 02:28:08;;;;;;;1.58;1.20;;;5.10;1.00;;;;;;5033231;28;20017;-82
2021/01/25 02:30:34;;;;;;;2.95;1.58;;;5.10;1.00;;;;;;5031787;28;20025;-82
2021/01/25 02:33:01;;;;;;;2.53;1.15;;;5.20;1.00;;;;;;5033265;28;20041;-82
2021/01/25 02:35:28;;;;;;;1.10;1.00;;;5.20;1.00;;;;;;5032570;28;20029;-82
2021/01/25 02:37:56;;;;;;;1.88;1.23;;;5.70;1.00;;;;;;5032650;28;20031;-82
2021/01/25 02:40:23;;;;;;;0.73;0.73;;;5.80;1.00;;;;;;5032760;28;20034;-82
2021/01/25 02:42:52;;;;;;;2.10;1.00;;;5.80;1.00;;;;;;5032881;28;20483;-82
2021/01/25 02:45:18;;;;;;;1.75;0.80;;;5.30;1.00;;;;;;5032731;28;20552;-82
2021/01/25 02:47:45;;;;;;;1.35;0.60;;;5.50;1.00;;;;;;5033215;28;20021;-82
2021/01/25 02:50:11;;;;;;;1.65;1.02;;;5.10;1.00;;;;;;5031805;28;20024;-82
2021/01/25 02:52:37;;;;;;;1.52;0.60;;;5.00;1.00;;;;;;5032864;28;20021;-82
2021/01/25 02:55:03;;;;;;;2.58;0.70;;;5.00;1.00;;;;;;5032722;28;20081;-82
2021/01/25 02:57:30;;;;;;;1.70;0.57;;;5.00;1.00;;;;;;5033204;28;20053;-82
2021/01/25 02:59:57;;;;;;;1.27;0.50;;;5.00;1.00;;;;;;5033095;28;20419;-82
2021/01/25 03:02:23;;;;;;;1.02;0.65;;;4.70;1.00;;;;;;5032183;28;20024;-82
2021/01/25 03:04:49;;;;;;;1.25;0.60;;;5.10;1.00;;;;;;5032330;28;20030;-82
2021/01/25 03:07:15;;;;;;;0.80;0.70;;;4.60;1.00;;;;;;5032375;28;20045;-82
2021/01/25 03:09:41;;;;;;;1.92;0.70;;;4.60;1.00;;;;;;5032616;28;20063;-82
2021/01/25 03:12:07;;;;;;;1.10;0.60;;;4.80;1.00;;;;;;5031561;28;20029;-82
2021/01/25 03:14:33;;;;;;;0.93;0.60;;;4.10;1.00;;;;;;5032357;28;20482;-82
2021/01/25 03:16:59;;;;;;;1.48;0.57;;;4.60;1.00;;;;;;5032232;28;20100;-82
2021/01/25 03:19:25;;;;;;;1.30;0.60;;;3.90;1.00;;;;;;5031885;28;20483;-82
2021/01/25 03:21:53;;;;;;;0.85;0.60;;;4.50;1.00;;;;;;5032290;28;20029;-82
2021/01/25 03:24:19;;;;;;;1.08;0.55;;;4.40;1.00;;;;;;5032525;28;20025;-82
2021/01/25 03:26:46;;;;;;;0.77;0.70;;;4.30;1.00;;;;;;5032260;28;20036;-82
2021/01/25 03:29:12;;;;;;;0.80;0.63;;;3.70;1.00;;;;;;5031464;28;20029;-82
2021/01/25 03:31:38;;;;;;;1.48;0.60;;;3.60;1.00;;;;;;5032575;28;20101;-82
2021/01/25 03:34:05;;;;;;;0.82;0.70;;;3.50;1.00;;;;;;5032328;28;20013;-82
2021/01/25 03:36:31;;;;;;;2.20;0.80;;;3.40;1.00;;;;;;5032601;28;20386;-82
2021/01/25 03:38:57;;;;;;;2.28;1.00;;;3.40;1.00;;;;;;5035154;28;20029;-82
2021/01/25 03:41:23;;;;;;;3.08;1.20;;;3.40;1.00;;;;;;5036325;28;20112;-82
2021/01/25 03:43:49;;;;;;;1.25;1.10;;;3.50;1.00;;;;;;5036121;28;20087;-82
2021/01/25 03:46:15;;;;;;;1.45;1.13;;;3.40;1.00;;;;;;5035302;28;20021;-82
2021/01/25 03:48:40;;;;;;;1.38;1.27;;;3.90;1.00;;;;;;5035536;28;20029;-82
2021/01/25 03:51:06;;;;;;;1.33;1.17;;;3.40;1.00;;;;;;5035165;28;20029;-82
2021/01/25 03:53:32;;;;;;;1.60;1.25;;;3.70;1.00;;;;;;5036143;28;20491;-82
2021/01/25 03:55:59;;;;;;;1.95;1.23;;;3.40;1.00;;;;;;5035447;28;20032;-82
2021/01/25 03:58:25;;;;;;;1.50;1.20;;;3.40;1.00;;;;;;5035677;28;20029;-82
2021/01/25 04:00:51;;;;;;;2.10;1.30;;;4.00;1.00;;;;;;5035541;28;20408;-82
2021/01/25 04:03:17;;;;;;;2.83;1.40;;;3.30;1.00;;;;;;5035885;28;20101;-82
2021/01/25 04:05:42;;;;;;;1.45;1.30;;;3.60;1.00;;;;;;5033507;28;20505;-82
2021/01/25 04:08:08;;;;;;;1.73;1.20;;;3.30;1.00;;;;;;5035209;28;20034;-82
2021/01/25 04:10:34;;;;;;;1.45;1.30;;;3.20;1.00;;;;;;5035241;28;20049;-82
2021/01/25 04:12:59;;;;;;;1.85;1.20;;;3.20;1.00;;;;;;5035047;28;20032;-82
2021/01/25 04:15:25;;;;;;;2.70;1.17;;;3.30;1.00;;;;;;5035155;28;20068;-82
2021/01/25 04:17:50;;;;;;;3.38;2.00;;;3.20;1.00;;;;;;5034330;28;20053;-82
2021/01/25 04:20:16;;;;;;;1.63;1.15;;;3.80;1.00;;;;;;5034437;28;20067;-82
2021/01/25 04:22:42;;;;;;;2.00;1.45;;;3.70;1.00;;;;;;5035644;28;20038;-82
2021/01/25 04:25:08;;;;;;;2.33;1.45;;;3.30;1.00;;;;;;5035470;28;20037;-82
2021/01/25 04:27:34;;;;;;;3.78;1.25;;;3.20;1.00;;;;;;5035073;28;20033;-82
2021/01/25 04:30:01;;;;;;;3.33;1.40;;;3.20;1.00;;;;;;5034804;28;20022;-82
2021/01/25 04:32:26;;;;;;;2.10;1.17;;;3.10;1.00;;;;;;5034722;28;20013;-82
2021/01/25 04:34:53;;;;;;;1.73;1.10;;;3.20;1.00;;;;;;5035079;28;20021;-82
2021/01/25 04:37:18;;;;;;;1.92;1.08;;;3.20;1.00;;;;;;5035147;28;20056;-82
2021/01/25 04:39:44;;;;;;;1.88;1.05;;;3.10;1.00;;;;;;5034769;28;20033;-82
2021/01/25 04:42:10;;;;;;;1.95;1.05;;;3.20;1.00;;;;;;5034740;28;20376;-82
2021/01/25 04:44:38;;;;;;;1.60;1.50;;;3.10;1.00;;;;;;5034453;28;20032;-82
2021/01/25 04:47:05;;;;;;;1.85;1.27;;;3.10;1.00;;;;;;5034317;28;20033;-82
2021/01/25 04:49:31;;;;;;;2.15;1.23;;;3.30;1.00;;;;;;5034390;28;20060;-82
2021/01/25 04:51:57;;;;;;;1.40;1.30;;;3.10;1.00;;;;;;5034649;28;20021;-82
2021/01/25 04:54:23;;;;;;;2.47;1.30;;;3.40;1.00;;;;;;5034637;28;20030;-82
2021/01/25 04:57:02;;;;;;;2.42;1.50;;;3.10;1.00;;;;;;5034404;28;20433;-82
2021/01/25 04:59:28;;;;;;;2.20;1.35;;;3.10;1.00;;;;;;5014866;28;20068;-82
2021/01/25 05:01:55;;;;;;;2.25;1.20;;;3.10;1.00;;;;;;5032661;28;20503;-82
2021/01/25 05:04:21;;;;;;;4.55;1.30;;;3.10;1.00;;;;;;5034282;28;20108;-82
2021/01/25 05:06:46;;;;;;;2.42;1.20;;;3.10;1.00;;;;;;5033494;28;20116;-82
2021/01/25 05:09:12;;;;;;;1.55;1.27;;;3.40;1.00;;;;;;5034149;28;20045;-82
2021/01/25 05:11:37;;;;;;;1.90;1.27;;;3.20;1.00;;;;;;5034309;28;20025;-82
2021/01/25 05:14:05;;;;;;;2.22;1.55;;;3.20;1.00;;;;;;5033623;28;20434;-82
2021/01/25 05:16:31;;;;;;;2.75;1.42;;;3.10;1.00;;;;;;5031869;28;20060;-82
2021/01/25 05:18:59;;;;;;;2.92;1.80;;;3.00;1.00;;;;;;5034406;28;20113;-82
2021/01/25 05:21:57;;;;;;;3.65;1.40;;;3.50;1.00;;;;;;5033938;28;20095;-82
2021/01/25 05:24:22;;;;;;;2.35;1.30;;;2.90;1.00;;;;;;4953427;29;20386;-82
2021/01/25 05:27:01;;;;;;;3.28;1.20;;;2.80;1.00;;;;;;4954341;29;20043;-82
2021/01/25 05:29:28;;;;;;;2.60;1.45;;;2.90;1.00;;;;;;4952286;29;20674;-82
2021/01/25 05:31:54;;;;;;;2.05;1.00;;;3.00;1.00;;;;;;4953861;29;20058;-82
2021/01/25 05:34:20;;;;;;;2.95;1.10;;;2.90;1.00;;;;;;4953387;29;20072;-82
2021/01/25 05:36:47;;;;;;;2.63;1.25;;;3.00;1.00;;;;;;4954074;29;20448;-82
2021/01/25 05:39:19;;;;;;;2.10;1.02;;;3.60;1.00;;;;;;4936640;29;20043;-82
2021/01/25 05:41:55;;;;;;;3.38;1.00;;;3.10;1.00;;;;;;4935191;29;20046;-82
2021/01/25 05:44:22;;;;;;;2.05;1.02;;;3.10;1.00;;;;;;4937885;28;20039;-82
2021/01/25 05:46:47;;;;;;;1.30;1.00;;;3.20;1.00;;;;;;4939207;29;20052;-82
2021/01/25 05:49:13;;;;;;;2.97;1.50;;;3.40;1.00;;;;;;4934468;29;20039;-82
2021/01/25 05:51:40;;;;;;;2.85;1.17;;;3.40;1.00;;;;;;4951178;29;20031;-82
2021/01/25 05:54:06;;;;;;;1.80;1.30;;;3.40;1.00;;;;;;4953672;29;20122;-82
2021/01/25 05:56:32;;;;;;;3.42;1.30;;;3.40;1.00;;;;;;4949039;29;20103;-82
2021/01/25 05:58:58;;;;;;;2.88;1.27;;;3.50;1.00;;;;;;4942059;28;20040;-82
2021/01/25 06:01:24;;;;;;;2.38;1.50;;;3.40;1.00;;;;;;5026892;28;20533;-82
2021/01/25 06:03:50;;;;;;;2.08;1.30;;;3.30;1.00;;;;;;5032833;28;20040;-82
2021/01/25 06:06:31;;;;;;;3.30;1.70;;;3.30;1.00;;;;;;5033035;28;20131;-82
2021/01/25 06:09:10;;;;;;;3.60;2.05;;;3.30;1.00;;;;;;5032921;28;20030;-82
2021/01/25 06:11:36;;;;;;;5.07;1.60;;;3.20;1.00;;;;;;5032490;28;20034;-82
2021/01/25 06:14:21;;;;;;;2.42;1.63;;;3.10;1.00;;;;;;5032819;28;20375;-82
2021/01/25 06:16:50;;;;;;;4.75;1.60;;;3.10;1.00;;;;;;5027015;28;20018;-82
2021/01/25 06:19:19;;;;;;;4.25;2.00;;;3.60;1.00;;;;;;5033171;28;20471;-82
2021/01/25 06:21:47;;;;;;;7.15;3.65;;;3.00;1.00;;;;;;5032678;28;20100;-82
2021/01/25 06:24:14;;;;;;;6.35;2.67;;;3.10;1.00;;;;;;5033213;28;20498;-82
2021/01/25 06:26:40;;;;;;;3.30;1.60;;;3.60;1.00;;;;;;5032670;28;20021;-82
2021/01/25 06:29:07;;;;;;;4.93;1.83;;;3.10;1.00;;;;;;5032408;28;20038;-82
2021/01/25 06:31:40;;;;;;;3.67;2.08;;;3.70;1.00;;;;;;5013335;28;20037;-82
2021/01/25 06:34:07;;;;;;;5.57;3.97;;;3.20;1.00;;;;;;5021153;28;20095;-82
2021/01/25 06:36:34;;;;;;;10.32;7.20;;;3.70;1.00;;;;;;5032697;28;20013;-82
2021/01/25 06:39:04;;;;;;;6.18;2.90;;;3.30;1.00;;;;;;5032350;28;20029;-82
2021/01/25 06:41:41;;;;;;;4.22;2.95;;;3.40;1.00;;;;;;5032754;28;20029;-82
2021/01/25 06:44:09;;;;;;;5.95;2.50;;;4.00;1.00;;;;;;5032297;28;20026;-82
2021/01/25 06:46:36;;;;;;;4.10;2.83;;;3.50;1.00;;;;;;5032801;28;20022;-82
2021/01/25 06:49:05;;;;;;;6.57;3.35;;;3.50;1.00;;;;;;5032010;28;20064;-82
2021/01/25 06:51:31;;;;;;;6.90;2.63;;;3.50;1.00;;;;;;5032984;28;20089;-82
2021/01/25 06:54:01;;;;;;;3.70;2.70;;;3.90;1.00;;;;;;5033066;28;20059;-82
2021/01/25 06:56:49;;;;;;;4.53;2.40;;;3.50;1.00;;;;;;5031911;28;20551;-82
2021/01/25 06:59:18;;;;;;;4.35;2.30;;;3.20;1.00;;;;;;5032147;28;20101;-82
2021/01/25 07:01:52;;;;;;;3.75;2.13;;;3.70;1.00;;;;;;5031906;28;20021;-82
2021/01/25 07:04:22;;;;;;;4.00;2.28;;;3.60;1.00;;;;;;5031714;28;20036;-82
2021/01/25 07:06:53;;;;;;;6.15;2.20;;;3.20;1.00;;;;;;5031388;28;20063;-82
2021/01/25 07:09:30;;;;;;;7.25;2.60;;;3.30;1.00;;;;;;5029653;28;20125;-82
2021/01/25 07:12:01;;;;;;;5.70;3.08;;;4.10;1.00;;;;;;5031692;28;20079;-82
2021/01/25 07:14:31;;;;;;;5.75;2.92;;;3.30;1.00;;;;;;5034521;28;20025;-82
2021/01/25 07:16:58;;;;;;;3.90;2.92;;;3.40;1.00;;;;;;5035669;28;20101;-82
2021/01/25 07:19:24;;;;;;;4.13;2.60;;;3.40;1.00;;;;;;5035486;28;20033;-82
2021/01/25 07:21:51;;;;;;;7.63;3.40;;;3.90;1.00;;;;;;5035683;28;20104;-82
2021/01/25 07:24:22;;;;;;;11.07;3.42;;;3.20;1.00;;;;;;5034951;28;20056;-83
2021/01/25 07:27:07;;;;;;;6.03;3.58;;;2.90;1.00;;;;;;5033826;28;20037;-83
2021/01/25 07:29:33;;;;;;;4.38;3.00;;;3.10;1.00;;;;;;5035143;28;20478;-83
2021/01/25 07:31:59;;;;;;;4.88;2.70;;;3.20;1.00;;;;;;5035276;28;20021;-83
2021/01/25 07:34:28;;;;;;;4.07;2.40;;;3.40;1.00;;;;;;5050978;28;20041;-83
2021/01/25 07:36:54;;;;;;;5.22;3.10;;;3.40;1.00;;;;;;5055514;28;20390;-83
2021/01/25 07:39:20;;;;;;;3.85;2.67;;;3.50;1.00;;;;;;5054666;28;20029;-83
2021/01/25 07:41:47;;;;;;;4.97;2.95;;;3.50;1.00;;;;;;5055280;28;20082;-83
2021/01/25 07:44:13;;;;;;;4.22;2.72;;;3.50;1.00;;;;;;5035685;28;20116;-83
2021/01/25 07:46:40;;;;;;;5.82;2.45;;;3.40;1.00;;;;;;5035192;28;20036;-83
2021/01/25 07:49:07;;;;;;;6.13;2.70;;;4.10;1.00;;;;;;5034941;28;20034;-82
2021/01/25 07:51:33;;;;;;;6.30;3.00;;;4.20;1.00;;;;;;5035252;28;20111;-83
2021/01/25 07:54:00;;;;;;;6.28;3.42;;;3.80;1.00;;;;;;5034783;28;20014;-83
2021/01/25 07:56:27;;;;;;;7.07;3.33;;;4.60;1.00;;;;;;5034783;28;20399;-83
2021/01/25 07:59:14;;;;;;;7.20;3.72;;;4.70;1.00;;;;;;5035039;28;20108;-83
2021/01/25 08:01:59;;;;;;;10.27;3.45;;;4.60;1.00;;;;;;5034936;28;20395;-83
2021/01/25 08:04:28;;;;;;;9.00;4.10;;;4.10;1.00;;;;;;5034417;28;20029;-83
2021/01/25 08:06:57;;;;;;;8.35;4.70;;;4.40;1.00;;;;;;5033986;28;20443;-84
2021/01/25 08:09:24;;;;;;;8.43;5.45;;;3.70;1.00;;;;;;5034327;28;20048;-83
2021/01/25 08:11:50;;;;;;;9.90;6.13;;;3.90;1.00;;;;;;5033902;28;20128;-84
2021/01/25 08:14:31;;;;;;;11.52;7.07;;;4.50;1.00;;;;;;5034254;28;20024;-84
2021/01/25 08:17:21;;;;;;;10.32;7.00;;;3.80;1.00;;;;;;5034478;28;20028;-83
2021/01/25 08:20:04;;;;;;;8.65;5.88;;;4.60;1.00;;;;;;5034481;28;20414;-82
2021/01/25 08:23:03;;;;;;;9.68;6.18;;;4.40;1.00;;;;;;5033863;28;20037;-81
2021/01/25 08:25:29;;;;;;;10.05;5.32;;;4.70;1.00;;;;;;5034365;28;20026;-82
2021/01/25 08:28:05;;;;;;;10.05;5.32;;;4.90;1.00;;;;;;5034210;28;20041;-82
2021/01/25 08:30:37;;;;;;;8.75;5.45;;;5.00;1.00;;;;;;5034187;28;20025;-81
2021/01/25 08:33:05;;;;;;;8.93;4.60;;;5.50;1.00;;;;;;5034276;28;20483;-82
2021/01/25 08:35:32;;;;;;;9.18;4.28;;;5.20;1.00;;;;;;5033663;28;20044;-81
2021/01/25 08:38:23;;;;;;;6.65;4.20;;;7.20;1.00;;;;;;5033652;28;20026;-82
2021/01/25 08:40:48;;;;;;;6.95;4.03;;;7.10;1.00;;;;;;5014323;28;20507;-81
2021/01/25 08:43:31;;;;;;;7.70;3.80;;;6.40;1.00;;;;;;5013954;28;20034;-82
2021/01/25 08:46:17;;;;;;;6.13;3.60;;;5.90;1.00;;;;;;5014388;28;20026;-82
2021/01/25 08:48:43;;;;;;;5.60;4.38;;;6.10;1.00;;;;;;5014094;28;20026;-82
2021/01/25 08:51:09;;;;;;;7.35;4.20;;;6.30;1.00;;;;;;5030779;28;20022;-82
2021/01/25 08:53:35;;;;;;;5.72;3.88;;;6.60;1.00;;;;;;5034012;28;20433;-86
2021/01/25 08:56:19;;;;;;;8.75;4.45;;;6.80;1.00;;;;;;5032492;28;20022;-85
2021/01/25 08:58:45;;;;;;;9.10;4.60;;;6.30;1.00;;;;;;5014271;28;20021;-83
2021/01/25 09:01:22;;;;;;;8.55;4.95;;;6.50;1.00;;;;;;5027960;28;20018;-84
2021/01/25 09:03:48;;;;;;;9.15;5.00;;;6.70;1.00;;;;;;5032784;28;20029;-84
2021/01/25 09:06:13;;;;;;;11.10;5.22;;;6.50;1.00;;;;;;5032750;28;20056;-90
2021/01/25 09:08:39;;;;;;;9.13;5.22;;;6.70;1.00;;;;;;5033402;28;20072;-83
2021/01/25 09:11:06;;;;;;;10.10;5.10;;;6.60;1.00;;;;;;5033865;28;20030;-86
2021/01/25 09:13:32;;;;;;;8.95;4.95;;;6.10;1.00;;;;;;5033751;28;20030;-84
2021/01/25 09:15:58;;;;;;;8.48;5.38;;;6.20;1.00;;;;;;5033309;28;20025;-89
2021/01/25 09:18:24;;;;;;;8.55;5.45;;;6.50;1.00;;;;;;5031514;28;20040;-84
2021/01/25 09:20:49;;;;;;;8.45;4.85;;;6.40;1.00;;;;;;5032396;28;20033;-85
2021/01/25 09:23:18;;;;;;;7.90;4.72;;;6.10;1.00;;;;;;5031685;28;20523;-82
2021/01/25 09:25:45;;;;;;;9.90;4.53;;;6.50;1.00;;;;;;5032833;28;20120;-82
2021/01/25 09:28:10;;;;;;;7.93;4.60;;;6.60;1.00;;;;;;5033417;28;20036;-82
2021/01/25 09:30:36;;;;;;;10.55;4.32;;;6.20;1.00;;;;;;5032759;28;20510;-82
2021/01/25 09:33:02;;;;;;;6.70;5.10;;;7.00;1.00;;;;;;5033157;28;20101;-82
2021/01/25 09:35:27;;;;;;;9.57;5.43;;;6.30;1.00;;;;;;5031380;28;20025;-82
2021/01/25 09:37:54;;;;;;;9.88;6.40;;;6.90;1.00;;;;;;5033019;28;20053;-82
2021/01/25 09:40:20;;;;;;;11.52;6.35;;;6.40;1.00;;;;;;5032873;28;20025;-83
2021/01/25 09:42:46;;;;;;;14.82;7.28;;;6.40;1.00;;;;;;5033084;28;20048;-82
2021/01/25 09:45:16;;;;;;;13.23;6.90;;;6.40;1.00;;;;;;5032451;28;20017;-82
2021/01/25 09:47:42;;;;;;;9.32;5.25;;;6.40;1.00;;;;;;5032998;28;20086;-82
2021/01/25 09:50:10;;;;;;;7.28;5.00;;;6.40;1.00;;;;;;5032084;28;20013;-82
2021/01/25 09:52:38;;;;;;;9.40;4.28;;;6.50;1.00;;;;;;5032577;28;20045;-82
2021/01/25 09:55:04;;;;;;;10.20;4.57;;;6.70;1.00;;;;;;5032609;28;20026;-82
2021/01/25 09:57:30;;;;;;;7.65;3.67;;;6.90;1.00;;;;;;5033029;28;20032;-82
2021/01/25 09:59:55;;;;;;;6.80;3.90;;;6.80;1.00;;;;;;5032362;28;20029;-82
2021/01/25 10:02:21;;;;;;;6.78;3.25;;;6.80;1.00;;;;;;5032222;28;21412;-82
2021/01/25 10:04:46;;;;;;;8.73;3.63;;;6.70;1.00;;;;;;5030603;28;20475;-82
2021/01/25 10:07:12;;;;;;;7.03;3.22;;;6.80;1.00;;;;;;5032093;28;20058;-83
2021/01/25 10:09:38;;;;;;;6.78;3.50;;;6.80;1.00;;;;;;5032748;28;20435;-82
2021/01/25 10:12:04;;;;;;;8.98;3.90;;;6.90;1.00;;;;;;5032246;28;20384;-85
2021/01/25 10:14:32;;;;;;;6.78;4.30;;;7.10;1.00;;;;;;5031596;28;20018;-83
2021/01/25 10:16:58;;;;;;;11.07;3.42;;;7.30;1.00;;;;;;5032258;28;20028;-83
2021/01/25 10:19:23;;;;;;;6.00;3.03;;;7.40;1.00;;;;;;5032279;28;20510;-84
2021/01/25 10:21:49;;;;;;;9.38;3.30;;;7.40;1.00;;;;;;5032305;28;20041;-84
2021/01/25 10:24:14;;;;;;;8.45;3.42;;;7.90;1.00;;;;;;5032159;28;20033;-84
2021/01/25 10:26:40;;;;;;;7.35;2.50;;;7.40;1.00;;;;;;5032369;28;20029;-84
2021/01/25 10:29:06;;;;;;;6.57;2.95;;;7.40;1.00;;;;;;5031455;28;20498;-84
2021/01/25 10:31:31;;;;;;;7.28;2.55;;;7.80;1.00;;;;;;5030747;28;20029;-84
2021/01/25 10:33:57;;;;;;;7.18;2.60;;;7.70;1.00;;;;;;5031202;28;20025;-84
2021/01/25 10:36:23;;;;;;;5.93;2.22;;;7.10;99.90;;;;;;5032072;28;20080;-82
2021/01/25 10:38:48;;;;;;;11.43;2.90;;;7.30;99.90;;;;;;5030156;28;20037;-83
2021/01/25 10:41:15;;;;;;;5.15;1.40;;;7.00;99.90;;;;;;5030442;28;20057;-84
2021/01/25 10:43:41;;;;;;;6.53;2.28;;;7.00;99.90;;;;;;5031611;28;20018;-83
2021/01/25 10:46:07;;;;;;;3.25;1.77;;;6.90;99.90;;;;;;5032969;28;20509;-82
2021/01/25 10:48:33;;;;;;;4.50;1.77;;;7.20;99.90;;;;;;5054085;28;20068;-82
2021/01/25 10:50:58;;;;;;;5.43;2.03;;;7.30;99.90;;;;;;5054273;28;20057;-82
2021/01/25 10:53:24;;;;;;;3.85;1.40;;;7.80;99.90;;;;;;5037025;28;20048;-82
2021/01/25 10:55:50;;;;;;;5.13;1.80;;;7.70;99.90;;;;;;5035431;28;20025;-81
2021/01/25 10:58:15;;;;;;;5.97;2.15;;;7.90;99.90;;;;;;5035362;28;20100;-82
2021/01/25 11:00:41;;;;;;;5.53;1.90;;;7.50;99.90;;;;;;5035341;28;20152;-82
2021/01/25 11:03:06;;;;;;;11.27;2.92;;;7.30;99.90;;;;;;5035265;28;20390;-83
2021/01/25 11:05:34;;;;;;;8.15;4.00;;;7.20;99.90;;;;;;5035009;28;20442;-83
2021/01/25 11:07:59;;;;;;;6.07;2.20;;;7.00;99.90;;;;;;5034822;28;20056;-83
2021/01/25 11:10:27;;;;;;;5.35;2.17;;;6.80;99.90;;;;;;5034823;28;20479;-83
2021/01/25 11:12:54;;;;;;;3.60;1.80;;;7.00;99.90;;;;;;5034461;28;20021;-82
2021/01/25 11:15:20;;;;;;;4.20;1.40;;;8.30;1.00;;;;;;5033614;28;20415;-82
2021/01/25 11:17:46;;;;;;;2.47;1.40;;;11.20;99.90;;;;;;5033950;28;20028;-82
2021/01/25 11:20:13;;;;;;;5.65;1.42;;;9.90;99.90;;;;;;5035021;28;20033;-82
2021/01/25 11:22:38;;;;;;;4.75;1.30;;;9.60;99.90;;;;;;5035212;28;20012;-83
2021/01/25 11:25:04;;;;;;;7.82;1.80;;;9.20;99.90;;;;;;5034788;28;20562;-83
2021/01/25 11:27:30;;;;;;;3.90;1.70;;;9.10;99.90;;;;;;5035981;28;20115;-82
2021/01/25 11:29:56;;;;;;;6.85;2.05;;;8.80;99.90;;;;;;5032887;28;20128;-83
2021/01/25 11:32:21;;;;;;;6.03;1.80;;;8.60;99.90;;;;;;5034588;28;20061;-83
2021/01/25 11:34:47;;;;;;;5.85;1.58;;;8.40;99.90;;;;;;5034928;28;20029;-82
2021/01/25 11:37:13;;;;;;;5.28;1.52;;;8.20;99.90;;;;;;5034598;28;20079;-83
2021/01/25 11:39:41;;;;;;;3.38;1.58;;;8.10;99.90;;;;;;5034772;28;20022;-83
2021/01/25 11:42:07;;;;;;;2.75;1.38;;;8.10;99.90;;;;;;5032952;28;20040;-82
2021/01/25 11:44:33;;;;;;;5.22;1.80;;;7.90;99.90;;;;;;5034146;28;20042;-82
2021/01/25 11:46:59;;;;;;;5.35;1.77;;;8.10;99.90;;;;;;5035037;28;20022;-83
2021/01/25 11:49:24;;;;;;;5.85;2.45;;;7.90;99.90;;;;;;5034467;28;20030;-83
2021/01/25 11:51:50;;;;;;;5.25;2.10;;;8.10;99.90;;;;;;5034762;28;20029;-82
2021/01/25 11:54:15;;;;;;;5.80;2.20;;;8.40;99.90;;;;;;5034195;28;20075;-82
2021/01/25 11:56:41;;;;;;;3.97;2.30;;;10.50;99.90;;;;;;5034336;28;20487;-82
2021/01/25 11:59:07;;;;;;;3.83;2.08;;;10.00;99.90;;;;;;5033176;28;20033;-82
2021/01/25 12:01:33;;;;;;;5.50;1.88;;;9.70;99.90;;;;;;5033823;28;20034;-81
2021/01/25 12:03:58;;;;;;;5.53;1.60;;;9.60;99.90;;;;;;5034929;28;20048;-82
2021/01/25 12:06:24;;;;;;;5.75;2.53;;;9.20;99.90;;;;;;5033702;28;20052;-82
2021/01/25 12:08:50;;;;;;;5.80;1.92;;;9.50;99.90;;;;;;5033835;28;20037;-81
2021/01/25 12:11:16;;;;;;;4.97;1.77;;;10.00;99.90;;;;;;5033994;28;20037;-82
2021/01/25 12:13:42;;;;;;;6.10;1.50;;;10.40;99.90;;;;;;5032888;28;20028;-81
2021/01/25 12:16:10;;;;;;;3.72;1.30;;;9.70;99.90;;;;;;5033425;28;20407;-83
2021/01/25 12:18:36;;;;;;;4.40;1.30;;;9.30;99.90;;;;;;5032756;28;20033;-82
2021/01/25 12:21:02;;;;;;;3.60;1.40;;;9.20;99.90;;;;;;5034316;28;20024;-81
2021/01/25 12:23:28;;;;;;;6.68;2.35;;;8.70;99.90;;;;;;5032304;28;20051;-84
2021/01/25 12:25:53;;;;;;;6.30;1.50;;;8.60;99.90;;;;;;5033793;28;20563;-88
2021/01/25 12:28:19;;;;;;;4.07;1.23;;;8.80;99.90;;;;;;5032208;28;20029;-85
2021/01/25 12:30:45;;;;;;;6.03;1.40;;;9.10;99.90;;;;;;5032961;28;20442;-85
2021/01/25 12:33:10;;;;;;;4.97;1.77;;;9.10;99.90;;;;;;5033582;28;20021;-83
2021/01/25 12:35:36;;;;;;;5.82;2.90;;;9.60;99.90;;;;;;5033594;28;20025;-82
2021/01/25 12:38:03;;;;;;;8.82;2.35;;;9.30;99.90;;;;;;5034132;28;20451;-82
2021/01/25 12:40:29;;;;;;;4.63;1.55;;;9.00;99.90;;;;;;5034019;28;20091;-83
2021/01/25 12:42:54;;;;;;;4.35;1.65;;;8.80;99.90;;;;;;5033042;28;20018;-81
2021/01/25 12:45:22;;;;;;;4.32;1.63;;;8.80;99.90;;;;;;5033820;28;20048;-83
2021/01/25 12:47:48;;;;;;;7.13;1.95;;;8.60;99.90;;;;;;5033632;28;20029;-82
2021/01/25 12:50:14;;;;;;;5.57;1.70;;;8.50;99.90;;;;;;5032957;28;20068;-82
2021/01/25 12:52:39;;;;;;;4.18;1.60;;;8.10;99.90;;;;;;5034011;28;20057;-82
2021/01/25 12:55:09;;;;;;;3.80;2.05;;;8.20;99.90;;;;;;5034025;28;20028;-81
2021/01/25 12:57:45;;;;;;;4.20;1.80;;;7.90;99.90;;;;;;5033303;28;20048;-82
2021/01/25 13:00:18;;;;;;;4.93;2.50;;;8.30;99.90;;;;;;5033873;28;20075;-81
2021/01/25 13:02:43;;;;;;;3.42;1.75;;;8.00;99.90;;;;;;5033914;28;20030;-82
2021/01/25 13:05:10;;;;;;;6.47;2.67;;;7.80;99.90;;;;;;5032246;28;20033;-82
2021/01/25 13:07:35;;;;;;;8.05;3.63;;;7.90;99.90;;;;;;5032141;28;20053;-81